Time;durP1;ratioP1;P1;durP2;ratioP2;P2;SDS_P1;SDS_P2;PMS_P1;PMS_P2;Temp;Humidity;BMP_temperature;BMP_pressure;BME280_temperature;BME280_humidity;BME280_pressure;Samples;Min_cycle;Max_cycle;Signal;HPM_P1;HPM_P2
2023/05/04 00:00:39;;;;;;;4.45;4.05;;;12.40;99.70;;;;;;5018068;28;20390;-84
2023/05/04 00:03:04;;;;;;;4.93;4.43;;;12.50;92.60;;;;;;5017732;28;20469;-84
2023/05/04 00:05:30;;;;;;;5.20;4.80;;;12.40;94.00;;;;;;5035459;28;20928;-84
2023/05/04 00:07:56;;;;;;;5.03;4.53;;;12.30;99.90;;;;;;5035550;28;20434;-85
2023/05/04 00:10:21;;;;;;;4.88;4.38;;;12.20;99.90;;;;;;5020085;28;20390;-83
2023/05/04 00:12:47;;;;;;;4.80;4.40;;;12.30;98.30;;;;;;5043801;28;20767;-83
2023/05/04 00:15:12;;;;;;;5.10;4.40;;;12.20;99.90;;;;;;5043095;28;20414;-84
2023/05/04 00:17:38;;;;;;;4.80;4.40;;;12.20;99.90;;;;;;5047545;28;20401;-82
2023/05/04 00:20:17;;;;;;;4.90;4.50;;;12.20;99.90;;;;;;5046632;28;20400;-82
2023/05/04 00:22:42;;;;;;;5.10;4.60;;;12.20;99.90;;;;;;5057697;28;20393;-82
2023/05/04 00:25:08;;;;;;;4.97;4.50;;;12.20;99.90;;;;;;5058146;28;20429;-85
2023/05/04 00:27:34;;;;;;;5.23;4.83;;;12.20;99.90;;;;;;5018461;28;20398;-84
2023/05/04 00:30:00;;;;;;;5.13;4.70;;;12.20;99.90;;;;;;5019121;28;20391;-84
2023/05/04 00:32:26;;;;;;;5.00;4.60;;;12.20;99.90;;;;;;5018294;28;20475;-84
2023/05/04 00:34:51;;;;;;;4.70;4.30;;;12.20;99.90;;;;;;5018734;28;20757;-85
2023/05/04 00:37:17;;;;;;;5.00;4.50;;;12.30;99.90;;;;;;5017388;28;20395;-83
2023/05/04 00:39:42;;;;;;;4.90;4.50;;;12.30;99.90;;;;;;5018709;28;20390;-83
2023/05/04 00:42:08;;;;;;;4.50;4.10;;;12.30;99.90;;;;;;5039117;28;20402;-82
2023/05/04 00:44:34;;;;;;;5.28;4.78;;;12.30;99.90;;;;;;5026468;28;20407;-83
2023/05/04 00:47:01;;;;;;;4.80;4.40;;;12.30;99.90;;;;;;5017875;28;20394;-84
2023/05/04 00:49:26;;;;;;;5.90;5.00;;;12.20;99.90;;;;;;5017951;28;20390;-85
2023/05/04 00:51:54;;;;;;;5.50;4.75;;;12.20;99.90;;;;;;5035404;28;20384;-85
2023/05/04 00:54:20;;;;;;;5.40;4.90;;;12.10;99.90;;;;;;5017565;28;20931;-84
2023/05/04 00:56:46;;;;;;;5.60;5.10;;;12.10;99.90;;;;;;5034571;28;20407;-84
2023/05/04 00:59:12;;;;;;;5.32;4.82;;;11.90;99.90;;;;;;5017149;28;20403;-85
2023/05/04 01:01:39;;;;;;;6.80;5.05;;;11.90;99.90;;;;;;5017393;28;20804;-84
2023/05/04 01:04:05;;;;;;;5.40;4.90;;;11.80;99.90;;;;;;5035065;28;20407;-84
2023/05/04 01:06:46;;;;;;;5.72;5.18;;;11.70;99.90;;;;;;5034720;28;20410;-84
2023/05/04 01:09:42;;;;;;;5.50;5.10;;;11.80;99.90;;;;;;5034272;28;20406;-82
2023/05/04 01:12:41;;;;;;;5.90;5.40;;;11.80;99.90;;;;;;5037237;28;20395;-83
2023/05/04 01:15:08;;;;;;;5.43;5.00;;;11.70;99.90;;;;;;5012662;28;20482;-84
2023/05/04 01:17:34;;;;;;;5.70;5.20;;;11.70;99.90;;;;;;5023964;28;20449;-82
2023/05/04 01:20:00;;;;;;;5.53;5.03;;;11.70;99.90;;;;;;5024477;28;20395;-84
2023/05/04 01:22:25;;;;;;;5.30;4.90;;;11.70;99.90;;;;;;5023757;28;20451;-85
2023/05/04 01:24:51;;;;;;;5.50;5.00;;;11.70;99.90;;;;;;5024645;28;20445;-84
2023/05/04 01:27:33;;;;;;;5.90;5.50;;;11.70;99.90;;;;;;5042331;28;20455;-84
2023/05/04 01:30:08;;;;;;;6.13;5.60;;;11.60;99.90;;;;;;5022653;28;20567;-83
2023/05/04 01:32:35;;;;;;;5.72;5.22;;;11.60;99.90;;;;;;5025312;28;20386;-83
2023/05/04 01:35:01;;;;;;;6.00;5.50;;;11.60;99.90;;;;;;5042520;28;20403;-83
2023/05/04 01:37:27;;;;;;;6.07;5.57;;;11.60;99.90;;;;;;5019594;28;20390;-85
2023/05/04 01:39:52;;;;;;;5.60;5.10;;;11.60;99.90;;;;;;5018222;28;20793;-84
2023/05/04 01:42:18;;;;;;;6.40;5.40;;;11.60;99.90;;;;;;5035962;28;20407;-85
2023/05/04 01:44:44;;;;;;;5.60;5.10;;;11.60;99.90;;;;;;5017911;28;20430;-85
2023/05/04 01:47:09;;;;;;;5.77;5.23;;;11.50;99.90;;;;;;5017245;28;20959;-84
2023/05/04 01:49:35;;;;;;;7.20;5.50;;;11.50;99.90;;;;;;5035419;28;20386;-85
2023/05/04 01:52:00;;;;;;;5.90;5.30;;;11.50;99.90;;;;;;5033757;28;20406;-84
2023/05/04 01:54:26;;;;;;;5.90;5.30;;;11.40;99.90;;;;;;5031902;28;20415;-85
2023/05/04 01:56:51;;;;;;;5.70;5.30;;;11.40;99.90;;;;;;5013959;28;20955;-85
2023/05/04 01:59:17;;;;;;;6.25;5.75;;;11.40;99.90;;;;;;4994003;28;20480;-83
2023/05/04 02:01:42;;;;;;;6.07;5.57;;;11.40;99.90;;;;;;5010724;28;20400;-83
2023/05/04 02:04:08;;;;;;;5.80;5.30;;;11.40;99.90;;;;;;5026850;28;20450;-82
2023/05/04 02:06:33;;;;;;;6.13;5.63;;;11.40;99.90;;;;;;5003996;28;20404;-84
2023/05/04 02:08:59;;;;;;;6.07;5.57;;;11.40;99.90;;;;;;5036234;28;20387;-84
2023/05/04 02:11:24;;;;;;;5.63;5.13;;;11.30;99.90;;;;;;5037644;28;20966;-85
2023/05/04 02:13:50;;;;;;;5.90;5.40;;;11.40;99.90;;;;;;5019818;28;20978;-85
2023/05/04 02:16:16;;;;;;;5.85;5.35;;;11.40;99.90;;;;;;5019001;28;20405;-85
2023/05/04 02:18:41;;;;;;;6.20;5.70;;;11.30;99.90;;;;;;5020098;28;20730;-84
2023/05/04 02:21:07;;;;;;;6.10;5.33;;;11.30;99.90;;;;;;5037757;28;20493;-84
2023/05/04 02:23:32;;;;;;;5.80;5.20;;;11.30;99.90;;;;;;5039339;28;20407;-83
2023/05/04 02:25:58;;;;;;;5.97;5.50;;;11.30;99.90;;;;;;5057781;28;20530;-82
2023/05/04 02:28:23;;;;;;;6.28;5.68;;;11.30;99.90;;;;;;5053800;28;20396;-84
2023/05/04 02:30:49;;;;;;;6.70;5.50;;;11.30;99.90;;;;;;5016012;28;20421;-84
2023/05/04 02:33:14;;;;;;;5.57;5.10;;;11.30;99.90;;;;;;5020483;28;20417;-83
2023/05/04 02:35:40;;;;;;;6.70;6.10;;;11.30;99.90;;;;;;5020366;28;20423;-84
2023/05/04 02:38:06;;;;;;;6.10;5.60;;;11.30;99.90;;;;;;5034622;28;20407;-83
2023/05/04 02:40:32;;;;;;;5.75;5.30;;;11.20;99.90;;;;;;5016444;28;20380;-84
2023/05/04 02:42:57;;;;;;;6.40;5.90;;;11.20;99.90;;;;;;5015023;28;20403;-84
2023/05/04 02:45:23;;;;;;;5.97;5.47;;;11.20;99.90;;;;;;5015518;28;20757;-85
2023/05/04 02:47:48;;;;;;;5.55;5.05;;;11.20;99.90;;;;;;5037193;28;20392;-84
2023/05/04 02:50:14;;;;;;;6.43;5.80;;;11.10;99.90;;;;;;5021533;28;20426;-83
2023/05/04 02:52:39;;;;;;;6.00;5.50;;;11.00;99.90;;;;;;5031324;28;20391;-85
2023/05/04 02:55:05;;;;;;;6.10;5.60;;;11.10;99.90;;;;;;5019903;28;20426;-86
2023/05/04 02:57:31;;;;;;;6.68;6.07;;;11.00;99.90;;;;;;5019249;28;20395;-85
2023/05/04 02:59:56;;;;;;;6.50;5.90;;;11.00;99.90;;;;;;5036885;28;20394;-85
2023/05/04 03:02:22;;;;;;;5.70;5.20;;;11.10;99.90;;;;;;5036973;28;20734;-85
2023/05/04 03:04:47;;;;;;;6.40;5.90;;;11.00;99.90;;;;;;5019504;28;20403;-85
2023/05/04 03:07:13;;;;;;;6.03;5.53;;;11.00;99.90;;;;;;5036397;28;20391;-86
2023/05/04 03:09:38;;;;;;;5.43;5.00;;;11.00;99.90;;;;;;5018500;28;20436;-85
2023/05/04 03:12:04;;;;;;;6.70;6.10;;;11.00;99.90;;;;;;5036866;28;20868;-85
2023/05/04 03:14:30;;;;;;;6.13;5.50;;;10.90;99.90;;;;;;5036828;28;20391;-85
2023/05/04 03:16:56;;;;;;;6.20;5.60;;;10.90;99.90;;;;;;5017843;28;20395;-86
2023/05/04 03:19:22;;;;;;;5.82;5.35;;;11.00;99.90;;;;;;5031833;28;20411;-83
2023/05/04 03:21:48;;;;;;;5.78;5.25;;;11.00;99.90;;;;;;5038889;28;20423;-82
2023/05/04 03:24:15;;;;;;;5.93;5.43;;;11.00;99.90;;;;;;5094471;22;20594;-83
2023/05/04 03:26:41;;;;;;;5.85;5.35;;;10.90;99.90;;;;;;5097951;28;20442;-82
2023/05/04 03:29:06;;;;;;;5.60;5.20;;;11.00;99.90;;;;;;5080013;28;20429;-83
2023/05/04 03:31:32;;;;;;;6.27;5.67;;;10.90;99.90;;;;;;5098576;28;20786;-83
2023/05/04 03:33:58;;;;;;;6.00;5.40;;;10.80;99.90;;;;;;5069868;28;20496;-83
2023/05/04 03:36:23;;;;;;;6.43;5.90;;;10.80;99.90;;;;;;5074602;28;20409;-83
2023/05/04 03:38:49;;;;;;;5.40;5.00;;;10.90;99.90;;;;;;5081514;28;20375;-83
2023/05/04 03:41:15;;;;;;;5.85;5.35;;;10.80;99.90;;;;;;5085976;28;20392;-83
2023/05/04 03:43:41;;;;;;;5.55;5.15;;;10.80;99.90;;;;;;5082413;28;20430;-83
2023/05/04 03:46:06;;;;;;;6.20;5.70;;;10.80;99.90;;;;;;5059346;28;20831;-83
2023/05/04 03:48:32;;;;;;;5.20;4.80;;;10.70;99.90;;;;;;5078200;28;20434;-83
2023/05/04 03:50:57;;;;;;;5.68;5.18;;;10.60;99.90;;;;;;5076807;28;20387;-83
2023/05/04 03:53:23;;;;;;;6.40;5.90;;;10.80;99.90;;;;;;5063415;28;20396;-83
2023/05/04 03:55:48;;;;;;;5.73;5.23;;;10.60;99.90;;;;;;5078487;28;20387;-83
2023/05/04 03:58:14;;;;;;;5.83;5.33;;;10.60;99.90;;;;;;5048881;28;20378;-83
2023/05/04 04:00:40;;;;;;;5.72;5.28;;;10.50;99.90;;;;;;5040914;28;20397;-83
2023/05/04 04:03:06;;;;;;;5.70;5.30;;;10.40;99.90;;;;;;5070535;28;20396;-83
2023/05/04 04:05:31;;;;;;;5.90;5.40;;;10.40;99.90;;;;;;5059729;28;20905;-83
2023/05/04 04:07:57;;;;;;;5.60;5.10;;;10.20;99.90;;;;;;5060010;28;20386;-83
2023/05/04 04:10:22;;;;;;;6.25;5.07;;;10.20;99.90;;;;;;5059941;28;20375;-83
2023/05/04 04:12:48;;;;;;;5.40;4.90;;;10.20;99.90;;;;;;5068597;28;20394;-83
2023/05/04 04:15:14;;;;;;;5.43;4.63;;;10.10;99.90;;;;;;5040276;28;20433;-83
2023/05/04 04:17:40;;;;;;;6.30;5.70;;;10.00;99.90;;;;;;5042289;28;20412;-83
2023/05/04 04:20:06;;;;;;;5.20;4.80;;;10.00;99.90;;;;;;5038913;28;20385;-83
2023/05/04 04:22:31;;;;;;;5.88;5.07;;;9.90;99.90;;;;;;5054841;28;20381;-83
2023/05/04 04:24:57;;;;;;;5.60;5.10;;;9.90;99.90;;;;;;5056463;28;20409;-83
2023/05/04 04:27:22;;;;;;;5.10;4.70;;;9.80;99.90;;;;;;5044393;28;20411;-83
2023/05/04 04:29:48;;;;;;;5.70;5.20;;;9.80;99.90;;;;;;5073976;28;20375;-83
2023/05/04 04:32:14;;;;;;;5.53;5.13;;;9.90;99.90;;;;;;5069810;28;20398;-83
2023/05/04 04:34:40;;;;;;;5.65;5.15;;;9.80;99.90;;;;;;5077966;28;20395;-83
2023/05/04 04:37:06;;;;;;;5.93;5.40;;;9.80;99.90;;;;;;5078126;28;20417;-83
2023/05/04 04:39:31;;;;;;;5.40;5.00;;;9.80;99.90;;;;;;5078451;28;20442;-83
2023/05/04 04:41:57;;;;;;;5.90;5.40;;;9.80;99.90;;;;;;5076828;28;20397;-82
2023/05/04 04:44:22;;;;;;;6.30;5.70;;;9.70;99.90;;;;;;5078072;28;20433;-83
2023/05/04 04:46:48;;;;;;;7.90;5.40;;;9.70;99.90;;;;;;5068072;28;21060;-83
2023/05/04 04:49:16;;;;;;;5.87;5.27;;;9.70;99.90;;;;;;5055925;28;20399;-82
2023/05/04 04:51:42;;;;;;;5.40;4.90;;;9.80;99.90;;;;;;5047005;28;20393;-82
2023/05/04 04:54:07;;;;;;;5.85;5.25;;;9.60;99.90;;;;;;5062489;28;20840;-83
2023/05/04 04:56:33;;;;;;;6.30;5.70;;;9.60;99.90;;;;;;5093247;28;20929;-83
2023/05/04 04:58:59;;;;;;;6.40;5.90;;;9.60;99.90;;;;;;5056573;28;20398;-83
2023/05/04 05:01:25;;;;;;;6.30;5.80;;;9.60;99.90;;;;;;5053503;28;20401;-83
2023/05/04 05:03:50;;;;;;;7.03;5.93;;;9.70;99.90;;;;;;5059171;28;20396;-83
2023/05/04 05:06:16;;;;;;;6.20;5.60;;;9.70;99.90;;;;;;5049473;28;20493;-83
2023/05/04 05:08:42;;;;;;;6.50;5.90;;;9.70;99.90;;;;;;5082957;28;20389;-82
2023/05/04 05:11:08;;;;;;;7.00;6.30;;;9.90;99.90;;;;;;5058919;28;20399;-82
2023/05/04 05:13:34;;;;;;;5.85;5.35;;;9.80;99.90;;;;;;5062639;28;20422;-82
2023/05/04 05:16:00;;;;;;;6.70;6.10;;;10.00;99.90;;;;;;5061924;28;20386;-82
2023/05/04 05:18:28;;;;;;;6.35;5.80;;;10.00;99.90;;;;;;5042060;28;20476;-82
2023/05/04 05:20:54;;;;;;;6.90;6.30;;;10.00;99.90;;;;;;5042857;28;20504;-82
2023/05/04 05:23:19;;;;;;;6.88;6.28;;;10.00;99.90;;;;;;5047403;28;20396;-83
2023/05/04 05:25:45;;;;;;;6.80;6.10;;;10.10;99.90;;;;;;5042991;28;20407;-83
2023/05/04 05:28:13;;;;;;;5.90;5.40;;;10.20;99.90;;;;;;5064842;28;20390;-82
2023/05/04 05:30:38;;;;;;;6.00;5.40;;;10.20;99.90;;;;;;5051927;28;20482;-82
2023/05/04 05:33:04;;;;;;;5.83;5.30;;;10.30;99.90;;;;;;5055005;28;20393;-82
2023/05/04 05:35:30;;;;;;;6.47;5.97;;;10.30;99.90;;;;;;5049474;28;20391;-82
2023/05/04 05:37:55;;;;;;;6.70;5.60;;;10.30;99.90;;;;;;5074163;28;20762;-82
2023/05/04 05:40:21;;;;;;;5.72;5.22;;;10.50;99.90;;;;;;5076623;28;20387;-82
2023/05/04 05:42:47;;;;;;;5.95;5.40;;;10.50;99.90;;;;;;5078549;28;20384;-82
2023/05/04 05:45:13;;;;;;;5.60;5.10;;;10.60;99.90;;;;;;5075386;28;20972;-82
2023/05/04 05:47:38;;;;;;;5.97;5.47;;;10.70;99.90;;;;;;5059032;28;20407;-82
2023/05/04 05:50:04;;;;;;;6.28;5.68;;;10.80;99.90;;;;;;5079460;28;20384;-82
2023/05/04 05:52:30;;;;;;;6.15;5.57;;;10.80;99.90;;;;;;5078774;28;20422;-82
2023/05/04 05:54:55;;;;;;;6.30;5.70;;;10.90;99.90;;;;;;5046340;28;20414;-82
2023/05/04 05:57:21;;;;;;;6.60;6.00;;;11.00;99.90;;;;;;5045023;28;20421;-82
2023/05/04 05:59:47;;;;;;;5.50;5.00;;;11.10;99.90;;;;;;5059313;28;20414;-82
2023/05/04 06:02:13;;;;;;;6.30;5.80;;;11.10;99.90;;;;;;5078216;28;20395;-82
2023/05/04 06:04:43;;;;;;;6.43;5.82;;;11.20;99.90;;;;;;5077307;28;20403;-82
2023/05/04 06:07:09;;;;;;;5.70;5.10;;;11.30;99.90;;;;;;5076730;28;20894;-82
2023/05/04 06:09:35;;;;;;;6.13;5.53;;;11.30;99.90;;;;;;5077665;28;20413;-82
2023/05/04 06:12:01;;;;;;;5.80;5.30;;;11.50;99.90;;;;;;5041460;28;20398;-82
2023/05/04 06:14:26;;;;;;;5.40;4.90;;;11.60;99.90;;;;;;5059004;28;20420;-83
2023/05/04 06:16:52;;;;;;;5.47;4.97;;;11.70;99.90;;;;;;5059544;28;20884;-82
2023/05/04 06:19:18;;;;;;;5.50;5.10;;;11.80;99.90;;;;;;5040211;28;20776;-82
2023/05/04 06:21:44;;;;;;;5.40;4.88;;;11.80;99.90;;;;;;5039777;28;20488;-82
2023/05/04 06:24:09;;;;;;;7.10;5.30;;;11.90;99.90;;;;;;5057449;28;20389;-83
2023/05/04 06:26:35;;;;;;;5.57;5.07;;;12.00;99.90;;;;;;5039231;28;21017;-82
2023/05/04 06:29:00;;;;;;;6.28;5.68;;;12.10;99.90;;;;;;5043840;28;20440;-82
2023/05/04 06:31:26;;;;;;;5.72;5.30;;;12.10;99.90;;;;;;5057737;28;20429;-83
2023/05/04 06:33:52;;;;;;;5.88;5.28;;;12.30;99.90;;;;;;5057435;28;20442;-82
2023/05/04 06:36:17;;;;;;;5.30;4.80;;;12.30;99.90;;;;;;5038218;28;20385;-83
2023/05/04 06:38:43;;;;;;;5.40;4.90;;;12.40;99.90;;;;;;5065549;28;20966;-82
2023/05/04 06:41:09;;;;;;;6.43;5.33;;;12.50;99.90;;;;;;5070120;28;20411;-83
2023/05/04 06:43:34;;;;;;;7.20;4.60;;;12.60;99.90;;;;;;5039676;28;20477;-83
2023/05/04 06:46:05;;;;;;;6.20;5.60;;;12.70;99.90;;;;;;5042659;28;20377;-83
2023/05/04 06:48:31;;;;;;;5.10;4.60;;;12.90;99.90;;;;;;5040127;28;20393;-83
2023/05/04 06:50:57;;;;;;;4.90;4.50;;;13.00;99.90;;;;;;5043674;28;20415;-83
2023/05/04 06:53:22;;;;;;;5.30;4.90;;;13.20;99.90;;;;;;5076671;28;20410;-83
2023/05/04 06:55:48;;;;;;;5.60;5.10;;;13.20;99.90;;;;;;5059313;28;20432;-83
2023/05/04 06:58:16;;;;;;;4.97;4.50;;;13.30;99.90;;;;;;5073634;28;20925;-83
2023/05/04 07:00:41;;;;;;;5.47;4.97;;;13.40;99.90;;;;;;5058574;28;20469;-83
2023/05/04 07:03:07;;;;;;;5.40;4.70;;;13.50;95.40;;;;;;5040198;28;20404;-84
2023/05/04 07:05:36;;;;;;;5.00;4.50;;;13.60;94.90;;;;;;5044375;28;20386;-83
2023/05/04 07:08:02;;;;;;;4.50;4.10;;;13.80;95.30;;;;;;5059405;28;20449;-84
2023/05/04 07:10:28;;;;;;;5.20;4.80;;;13.80;91.30;;;;;;5041831;28;20931;-82
2023/05/04 07:12:53;;;;;;;5.10;4.70;;;13.80;85.90;;;;;;5060443;28;20388;-82
2023/05/04 07:15:19;;;;;;;6.22;4.70;;;13.90;73.80;;;;;;5082343;28;20395;-81
2023/05/04 07:17:46;;;;;;;4.80;4.40;;;14.00;63.10;;;;;;5077254;28;20401;-82
2023/05/04 07:20:14;;;;;;;5.00;4.50;;;14.10;54.50;;;;;;5042078;28;20941;-83
2023/05/04 07:22:40;;;;;;;4.87;4.47;;;14.30;42.00;;;;;;5043665;28;20826;-83
2023/05/04 07:25:07;;;;;;;7.68;5.90;;;14.50;29.50;;;;;;5040811;28;20396;-83
2023/05/04 07:27:35;;;;;;;6.90;6.20;;;14.70;37.90;;;;;;5058344;28;20390;-83
2023/05/04 07:30:02;;;;;;;7.75;6.60;;;14.90;37.00;;;;;;5058907;28;20387;-83
2023/05/04 07:32:27;;;;;;;7.13;6.45;;;14.80;37.80;;;;;;5040748;28;20403;-83
2023/05/04 07:34:53;;;;;;;7.90;7.10;;;14.90;39.30;;;;;;5078386;28;20404;-82
2023/05/04 07:37:18;;;;;;;7.55;6.80;;;14.90;39.60;;;;;;5045449;28;21069;-83
2023/05/04 07:39:44;;;;;;;7.00;6.30;;;15.00;38.70;;;;;;5059288;28;20378;-83
2023/05/04 07:42:13;;;;;;;7.27;6.47;;;15.20;35.60;;;;;;5059196;28;20384;-83
2023/05/04 07:44:40;;;;;;;7.70;6.40;;;15.20;34.60;;;;;;5059193;28;20393;-83
2023/05/04 07:47:05;;;;;;;6.90;6.20;;;15.30;31.40;;;;;;5053098;28;20400;-83
2023/05/04 07:49:31;;;;;;;7.63;5.45;;;15.40;29.40;;;;;;5060768;28;21005;-83
2023/05/04 07:51:57;;;;;;;6.28;5.68;;;15.40;30.30;;;;;;5078284;28;20392;-83
2023/05/04 07:54:22;;;;;;;6.67;5.90;;;15.40;30.40;;;;;;5079372;28;20901;-83
2023/05/04 07:56:48;;;;;;;6.33;5.73;;;15.40;32.10;;;;;;5076894;28;20384;-83
2023/05/04 07:59:16;;;;;;;6.57;6.03;;;15.50;31.70;;;;;;5059696;28;20427;-83
2023/05/04 08:01:42;;;;;;;6.70;6.10;;;15.60;31.30;;;;;;5058508;28;21034;-83
2023/05/04 08:04:07;;;;;;;6.90;6.27;;;15.60;26.80;;;;;;5038149;28;20424;-83
2023/05/04 08:06:38;;;;;;;6.28;5.78;;;15.70;26.30;;;;;;5046600;28;20391;-84
2023/05/04 08:09:04;;;;;;;6.70;6.10;;;15.80;25.90;;;;;;5038748;28;20771;-84
2023/05/04 08:11:30;;;;;;;8.45;6.53;;;15.70;22.90;;;;;;5056294;28;20390;-83
2023/05/04 08:13:56;;;;;;;7.00;6.30;;;15.80;20.90;;;;;;5038439;28;20775;-82
2023/05/04 08:16:22;;;;;;;7.40;6.70;;;15.80;20.20;;;;;;5045460;28;20401;-83
2023/05/04 08:18:47;;;;;;;7.65;6.95;;;15.60;18.20;;;;;;5058519;28;20451;-83
2023/05/04 08:21:13;;;;;;;7.40;6.70;;;15.80;18.80;;;;;;5073553;28;20391;-84
2023/05/04 08:23:39;;;;;;;8.80;8.10;;;15.70;18.40;;;;;;5075412;28;20396;-84
2023/05/04 08:26:04;;;;;;;8.07;7.30;;;15.50;17.70;;;;;;5057995;28;20396;-83
2023/05/04 08:28:34;;;;;;;8.57;7.77;;;15.50;16.80;;;;;;5058333;28;20766;-83
2023/05/04 08:30:59;;;;;;;8.75;8.00;;;15.60;17.40;;;;;;5061422;28;20401;-83
2023/05/04 08:33:25;;;;;;;9.73;8.83;;;15.60;18.20;;;;;;5055745;28;20925;-84
2023/05/04 08:35:50;;;;;;;9.73;8.83;;;15.70;18.90;;;;;;5068411;28;20388;-83
2023/05/04 08:38:16;;;;;;;9.70;8.43;;;15.80;18.50;;;;;;5058290;28;20506;-83
2023/05/04 08:40:42;;;;;;;9.70;8.70;;;15.90;19.20;;;;;;5076616;28;20407;-83
2023/05/04 08:43:08;;;;;;;10.60;9.50;;;16.10;20.90;;;;;;5077801;28;20818;-83
2023/05/04 08:45:38;;;;;;;9.50;8.60;;;16.10;20.60;;;;;;5067847;28;20419;-82
2023/05/04 08:48:05;;;;;;;10.35;9.20;;;15.90;20.60;;;;;;5059736;28;20452;-83
2023/05/04 08:50:33;;;;;;;9.32;8.10;;;16.00;17.50;;;;;;5060877;28;20390;-85
2023/05/04 08:53:02;;;;;;;8.98;8.27;;;16.20;15.50;;;;;;5040496;28;20453;-83
2023/05/04 08:55:30;;;;;;;8.88;8.07;;;16.10;15.90;;;;;;5039508;28;20458;-83
2023/05/04 08:58:03;;;;;;;9.80;8.80;;;16.20;14.50;;;;;;5053576;28;20425;-83
2023/05/04 09:00:29;;;;;;;9.10;8.30;;;16.30;14.00;;;;;;5060438;28;20415;-83
2023/05/04 09:02:58;;;;;;;10.07;8.60;;;16.20;14.30;;;;;;5059235;28;20388;-84
2023/05/04 09:05:25;;;;;;;7.22;6.68;;;16.30;12.70;;;;;;5058863;28;20388;-85
2023/05/04 09:07:51;;;;;;;8.98;8.18;;;16.30;13.70;;;;;;5086184;28;20391;-82
2023/05/04 09:10:17;;;;;;;8.20;7.40;;;16.50;13.90;;;;;;5084044;28;20395;-83
2023/05/04 09:12:43;;;;;;;9.20;8.40;;;16.60;13.80;;;;;;5070127;28;20439;-83
2023/05/04 09:15:27;;;;;;;9.70;8.10;;;16.50;13.50;;;;;;5090141;28;20484;-84
2023/05/04 09:17:55;;;;;;;9.45;8.60;;;16.90;11.50;;;;;;5081068;28;20410;-83
2023/05/04 09:20:21;;;;;;;8.65;7.85;;;16.90;12.10;;;;;;5064261;28;20406;-83
2023/05/04 09:22:46;;;;;;;8.87;8.07;;;17.00;12.70;;;;;;5075148;28;20388;-83
2023/05/04 09:25:12;;;;;;;9.23;8.32;;;17.10;11.00;;;;;;5122308;22;20464;-84
2023/05/04 09:27:41;;;;;;;8.70;7.60;;;17.30;9.50;;;;;;5101317;28;20414;-85
2023/05/04 09:30:08;;;;;;;7.03;6.43;;;17.50;8.20;;;;;;5083401;28;20381;-85
2023/05/04 09:32:47;;;;;;;7.93;7.22;;;17.50;8.60;;;;;;5070701;28;20391;-85
2023/05/04 09:35:13;;;;;;;7.88;7.18;;;17.60;11.30;;;;;;5072079;28;20482;-86
2023/05/04 09:37:44;;;;;;;7.20;6.60;;;17.60;7.20;;;;;;5077973;28;20412;-85
2023/05/04 09:40:11;;;;;;;6.80;6.10;;;17.70;8.20;;;;;;5079949;28;20385;-86
2023/05/04 09:42:37;;;;;;;6.65;6.00;;;17.80;10.30;;;;;;5062173;28;20403;-86
2023/05/04 09:45:04;;;;;;;6.00;5.50;;;18.00;12.50;;;;;;5061182;28;20379;-85
2023/05/04 09:47:35;;;;;;;5.68;5.28;;;18.20;10.90;;;;;;5060654;28;20388;-85
2023/05/04 09:50:15;;;;;;;5.15;4.70;;;18.40;12.70;;;;;;5079171;28;20379;-85
2023/05/04 09:52:42;;;;;;;4.88;4.50;;;18.60;7.20;;;;;;5080191;28;20390;-85
2023/05/04 09:55:12;;;;;;;5.10;4.60;;;18.70;5.50;;;;;;5082148;28;20405;-84
2023/05/04 09:57:40;;;;;;;4.78;4.38;;;18.80;4.30;;;;;;5088996;28;20437;-84
2023/05/04 10:00:06;;;;;;;4.72;4.20;;;18.90;3.90;;;;;;5082602;28;20455;-84
2023/05/04 10:02:32;;;;;;;6.05;5.45;;;19.00;5.00;;;;;;5081916;28;20378;-86
2023/05/04 10:05:00;;;;;;;5.90;5.40;;;19.20;2.70;;;;;;5100059;28;20894;-83
2023/05/04 10:07:30;;;;;;;5.50;5.10;;;19.20;2.80;;;;;;5097914;28;20433;-85
2023/05/04 10:09:58;;;;;;;5.90;5.30;;;19.10;2.70;;;;;;5079616;28;20443;-84
2023/05/04 10:12:24;;;;;;;6.18;4.88;;;19.30;3.80;;;;;;5098411;28;20407;-85
2023/05/04 10:14:49;;;;;;;6.50;5.90;;;19.20;1.60;;;;;;5070000;28;20411;-85
2023/05/04 10:17:31;;;;;;;6.32;5.72;;;19.30;1.00;;;;;;5063761;28;20908;-85
2023/05/04 10:20:20;;;;;;;6.55;5.90;;;19.50;1.00;;;;;;5064680;28;20403;-85
2023/05/04 10:23:28;;;;;;;5.25;4.85;;;19.40;1.00;;;;;;5082891;28;20854;-85
2023/05/04 10:26:24;;;;;;;6.50;5.90;;;19.50;1.00;;;;;;5066658;28;20399;-84
2023/05/04 10:29:18;;;;;;;5.80;5.20;;;19.80;1.00;;;;;;5067045;28;20375;-84
2023/05/04 10:31:43;;;;;;;6.00;5.50;;;20.10;1.00;;;;;;5065633;28;20387;-85
2023/05/04 10:34:10;;;;;;;8.10;5.23;;;20.20;7.20;;;;;;5068497;28;20483;-84
2023/05/04 10:36:36;;;;;;;5.55;5.05;;;20.50;1.00;;;;;;5072438;28;20487;-85
2023/05/04 10:39:02;;;;;;;4.80;4.40;;;20.30;1.00;;;;;;5066619;28;20394;-83
2023/05/04 10:41:28;;;;;;;6.18;4.68;;;20.30;1.00;;;;;;5080800;28;20379;-84
2023/05/04 10:44:05;;;;;;;5.30;4.90;;;20.50;1.00;;;;;;5064447;28;20811;-85
2023/05/04 10:46:30;;;;;;;5.80;5.20;;;20.60;1.00;;;;;;5066832;28;20383;-85
2023/05/04 10:48:56;;;;;;;7.00;4.90;;;20.60;1.00;;;;;;5085520;28;20433;-85
2023/05/04 10:51:23;;;;;;;5.20;4.70;;;20.70;1.00;;;;;;5061408;28;20380;-84
2023/05/04 10:53:49;;;;;;;5.18;4.78;;;20.80;1.00;;;;;;5062430;28;20771;-85
2023/05/04 10:56:26;;;;;;;4.90;4.30;;;20.80;1.00;;;;;;5079432;28;20372;-84
2023/05/04 10:58:52;;;;;;;4.40;3.80;;;21.00;1.00;;;;;;5095969;28;20390;-84
2023/05/04 11:01:19;;;;;;;4.20;3.80;;;21.50;1.00;;;;;;5102125;28;20375;-85
2023/05/04 11:03:45;;;;;;;5.17;4.23;;;21.70;1.00;;;;;;5105505;28;20490;-84
2023/05/04 11:06:23;;;;;;;3.75;3.45;;;21.70;1.00;;;;;;5106764;28;20425;-84
2023/05/04 11:08:59;;;;;;;4.10;3.80;;;21.70;1.00;;;;;;5115610;28;20394;-83
2023/05/04 11:11:26;;;;;;;3.85;3.55;;;22.00;1.00;;;;;;5097484;28;20395;-83
2023/05/04 11:13:52;;;;;;;4.75;4.03;;;22.00;1.00;;;;;;5078591;28;20426;-84
2023/05/04 11:16:25;;;;;;;4.33;4.03;;;22.30;1.00;;;;;;5070097;28;20455;-84
2023/05/04 11:18:53;;;;;;;4.35;3.95;;;22.10;1.00;;;;;;5071026;28;20395;-83
2023/05/04 11:21:26;;;;;;;4.53;4.13;;;22.50;1.00;;;;;;5081582;28;20399;-84
2023/05/04 11:23:58;;;;;;;4.50;3.95;;;23.00;1.00;;;;;;5095048;28;20394;-84
2023/05/04 11:26:24;;;;;;;4.50;3.70;;;23.40;1.00;;;;;;5094179;28;20433;-84
2023/05/04 11:28:50;;;;;;;3.80;3.30;;;23.40;1.00;;;;;;5077657;28;20390;-85
2023/05/04 11:31:17;;;;;;;3.90;3.45;;;23.70;1.00;;;;;;5077343;28;20392;-85
2023/05/04 11:33:51;;;;;;;4.07;3.67;;;23.70;1.00;;;;;;5091793;28;20766;-84
2023/05/04 11:36:17;;;;;;;3.85;3.55;;;24.00;1.00;;;;;;5078984;28;20388;-84
2023/05/04 11:38:42;;;;;;;4.00;3.60;;;24.50;1.00;;;;;;5072995;28;20384;-84
2023/05/04 11:41:08;;;;;;;3.90;2.90;;;25.20;1.00;;;;;;5075482;28;20378;-85
2023/05/04 11:43:36;;;;;;;2.95;2.75;;;25.80;1.00;;;;;;5072752;28;20445;-85
2023/05/04 11:46:03;;;;;;;3.50;2.80;;;25.20;1.00;;;;;;5089646;28;20387;-85
2023/05/04 11:48:31;;;;;;;5.32;3.30;;;26.00;1.00;;;;;;5077332;28;20395;-85
2023/05/04 11:50:57;;;;;;;3.33;3.05;;;26.60;1.00;;;;;;5091671;28;20397;-85
2023/05/04 11:53:23;;;;;;;3.38;3.08;;;26.30;1.00;;;;;;5090248;28;20385;-85
2023/05/04 11:55:51;;;;;;;2.60;2.40;;;26.80;1.00;;;;;;5066679;28;20407;-84
2023/05/04 11:58:23;;;;;;;3.20;3.00;;;27.10;1.00;;;;;;5098119;28;20422;-83
2023/05/04 12:00:56;;;;;;;2.63;2.28;;;26.70;1.00;;;;;;5088233;28;20415;-83
2023/05/04 12:03:26;;;;;;;2.80;2.60;;;26.20;1.00;;;;;;5110374;28;20374;-82
2023/05/04 12:05:54;;;;;;;3.08;2.88;;;27.00;1.00;;;;;;5098267;28;20422;-81
2023/05/04 12:08:30;;;;;;;2.80;2.60;;;28.40;1.00;;;;;;5114134;27;20404;-81
2023/05/04 12:11:19;;;;;;;3.05;2.78;;;27.30;1.00;;;;;;5092856;28;21106;-80
2023/05/04 12:13:46;;;;;;;2.90;2.70;;;27.40;1.00;;;;;;5095931;28;20394;-81
2023/05/04 12:16:16;;;;;;;3.00;2.80;;;27.20;1.00;;;;;;5108713;28;20460;-81
2023/05/04 12:18:44;;;;;;;2.80;2.60;;;27.50;1.00;;;;;;5068352;28;20778;-82
2023/05/04 12:21:14;;;;;;;2.92;2.72;;;27.70;1.00;;;;;;5082711;28;20396;-83
2023/05/04 12:23:40;;;;;;;3.00;2.70;;;27.40;1.00;;;;;;5065902;28;20399;-82
2023/05/04 12:26:10;;;;;;;3.45;2.95;;;27.10;1.00;;;;;;5082404;28;20750;-83
2023/05/04 12:28:38;;;;;;;2.90;2.70;;;26.90;1.00;;;;;;5081823;28;20390;-83
2023/05/04 12:31:05;;;;;;;3.90;2.87;;;27.40;1.00;;;;;;5077933;28;20391;-83
2023/05/04 12:33:33;;;;;;;2.83;2.63;;;27.70;1.00;;;;;;5062547;28;20392;-84
2023/05/04 12:36:00;;;;;;;2.80;2.60;;;27.70;1.00;;;;;;5071461;28;20401;-84
2023/05/04 12:38:26;;;;;;;3.40;2.70;;;27.40;1.00;;;;;;5093322;28;20443;-84
2023/05/04 12:40:52;;;;;;;2.88;2.60;;;27.00;1.00;;;;;;5097058;28;20396;-83
2023/05/04 12:43:21;;;;;;;2.90;2.60;;;27.90;1.00;;;;;;5095113;28;20412;-83
2023/05/04 12:45:50;;;;;;;3.30;3.00;;;28.30;1.00;;;;;;5074115;28;20400;-83
2023/05/04 12:48:17;;;;;;;3.30;2.75;;;28.00;1.00;;;;;;5093516;28;20390;-84
2023/05/04 12:50:47;;;;;;;2.47;2.30;;;27.40;1.00;;;;;;5095267;28;20381;-83